Time;durP1;ratioP1;P1;durP2;ratioP2;P2;SDS_P1;SDS_P2;PMS_P1;PMS_P2;Temp;Humidity;BMP_temperature;BMP_pressure;BME280_temperature;BME280_humidity;BME280_pressure;Samples;Min_cycle;Max_cycle;Signal;HPM_P1;HPM_P2
2021/08/07 00:02:09;;;;;;;9.55;1.75;;;13.60;99.90;;;;;;6220270;23;20016;-95
2021/08/07 00:04:34;;;;;;;4.53;1.60;;;13.50;99.90;;;;;;6219941;23;20008;-94
2021/08/07 00:07:00;;;;;;;7.07;1.80;;;13.60;99.90;;;;;;6220078;23;20002;-94
2021/08/07 00:09:26;;;;;;;8.70;1.83;;;13.50;99.90;;;;;;6219653;23;20008;-93
2021/08/07 00:11:51;;;;;;;6.65;2.40;;;13.50;99.90;;;;;;6219727;23;20032;-92
2021/08/07 00:14:17;;;;;;;13.85;2.00;;;13.50;99.90;;;;;;6219837;23;20419;-93
2021/08/07 00:16:43;;;;;;;6.85;1.70;;;13.50;99.90;;;;;;6220782;23;20385;-95
2021/08/07 00:19:08;;;;;;;9.25;1.85;;;13.50;99.90;;;;;;6221731;23;20431;-94
2021/08/07 00:21:34;;;;;;;4.70;1.80;;;13.40;99.90;;;;;;6221688;23;20050;-96
2021/08/07 00:24:00;;;;;;;7.78;2.10;;;13.40;99.90;;;;;;6221790;23;20454;-95
2021/08/07 00:26:25;;;;;;;6.93;2.13;;;13.40;99.90;;;;;;6221665;23;20079;-94
2021/08/07 00:28:51;;;;;;;13.75;2.17;;;13.40;99.90;;;;;;6221745;23;20485;-95
2021/08/07 00:31:17;;;;;;;9.45;2.03;;;13.40;99.90;;;;;;6221793;23;20011;-94
2021/08/07 00:33:43;;;;;;;10.80;2.00;;;13.40;99.90;;;;;;6221307;23;20427;-93
2021/08/07 00:36:08;;;;;;;13.48;2.30;;;13.30;99.90;;;;;;6221645;23;20008;-94
2021/08/07 00:38:34;;;;;;;8.45;1.90;;;13.30;99.90;;;;;;6221476;23;20004;-95
2021/08/07 00:41:00;;;;;;;11.07;2.10;;;13.30;99.90;;;;;;6221662;23;20004;-95
2021/08/07 00:43:26;;;;;;;4.68;1.90;;;13.30;99.90;;;;;;6221654;23;20007;-94
2021/08/07 00:45:51;;;;;;;9.95;2.00;;;13.30;99.90;;;;;;6222115;23;20001;-94
2021/08/07 00:48:17;;;;;;;8.43;2.30;;;13.30;99.90;;;;;;6216341;23;20016;-93
2021/08/07 00:50:47;;;;;;;7.70;2.40;;;13.20;99.90;;;;;;6216222;23;20094;-95
2021/08/07 00:53:13;;;;;;;11.93;2.50;;;13.30;99.90;;;;;;6216610;23;20123;-94
2021/08/07 00:55:38;;;;;;;11.85;2.35;;;13.20;99.90;;;;;;6216323;23;20437;-93
2021/08/07 00:58:04;;;;;;;7.22;2.58;;;13.20;99.90;;;;;;6216413;23;19997;-93
2021/08/07 01:00:31;;;;;;;8.85;2.25;;;13.20;99.90;;;;;;6216119;23;20062;-93
2021/08/07 01:03:07;;;;;;;8.10;2.78;;;13.20;99.90;;;;;;6216472;23;20004;-94
2021/08/07 01:05:54;;;;;;;6.75;2.50;;;13.20;99.90;;;;;;6219075;23;20016;-94
2021/08/07 01:08:22;;;;;;;10.35;2.35;;;13.20;99.90;;;;;;6236242;22;20025;-94
2021/08/07 01:11:14;;;;;;;6.72;2.53;;;13.20;99.90;;;;;;6240398;23;20009;-95
2021/08/07 01:13:47;;;;;;;6.25;2.38;;;13.20;99.90;;;;;;6216601;23;20008;-95
2021/08/07 01:16:24;;;;;;;11.02;2.40;;;13.20;99.90;;;;;;6216481;23;20005;-95
2021/08/07 01:18:51;;;;;;;11.75;3.40;;;13.20;99.90;;;;;;6216561;23;20008;-93
2021/08/07 01:21:21;;;;;;;7.07;2.17;;;13.20;99.90;;;;;;6216048;23;20009;-94
2021/08/07 01:23:51;;;;;;;10.02;2.13;;;13.20;99.90;;;;;;6216038;23;20008;-92
2021/08/07 01:26:36;;;;;;;6.38;2.13;;;13.20;99.90;;;;;;6216057;23;20048;-94
2021/08/07 01:29:03;;;;;;;5.20;2.13;;;13.20;99.90;;;;;;6215633;23;20088;-94
2021/08/07 01:31:30;;;;;;;9.30;2.13;;;13.10;99.90;;;;;;6216056;23;20309;-94
2021/08/07 01:33:57;;;;;;;10.38;2.50;;;13.20;99.90;;;;;;6216415;23;20038;-94
2021/08/07 01:36:23;;;;;;;5.03;2.28;;;13.20;99.90;;;;;;6216635;23;20400;-95
2021/08/07 01:38:49;;;;;;;7.38;1.95;;;13.20;99.90;;;;;;6216109;23;20009;-95
2021/08/07 01:41:20;;;;;;;8.48;2.75;;;13.20;99.90;;;;;;6216013;23;20567;-93
2021/08/07 01:43:47;;;;;;;8.60;2.20;;;13.20;99.90;;;;;;6216547;23;20025;-93
2021/08/07 01:46:15;;;;;;;6.25;1.92;;;13.20;99.90;;;;;;6217153;23;20055;-95
2021/08/07 01:49:12;;;;;;;8.40;2.22;;;13.10;99.90;;;;;;6216522;23;20012;-94
2021/08/07 01:51:43;;;;;;;9.90;2.22;;;13.20;99.90;;;;;;6217533;23;20008;-94
2021/08/07 01:54:10;;;;;;;9.32;2.47;;;13.10;99.90;;;;;;6220037;23;20004;-93
2021/08/07 01:56:43;;;;;;;10.85;2.17;;;13.20;99.90;;;;;;6219459;23;20005;-94
2021/08/07 01:59:14;;;;;;;7.60;2.58;;;13.20;99.90;;;;;;6218617;23;20027;-94
2021/08/07 02:01:40;;;;;;;8.05;2.20;;;13.20;99.90;;;;;;6219099;23;20493;-95
2021/08/07 02:04:08;;;;;;;6.95;2.10;;;13.20;99.90;;;;;;6219509;23;20004;-94
2021/08/07 02:06:35;;;;;;;7.90;2.38;;;13.20;99.90;;;;;;6230608;23;20005;-93
2021/08/07 02:09:05;;;;;;;8.63;2.03;;;13.20;99.90;;;;;;6237678;23;20024;-92
2021/08/07 02:11:32;;;;;;;6.50;2.55;;;13.20;99.90;;;;;;6240135;23;20004;-95
2021/08/07 02:13:59;;;;;;;11.45;2.95;;;13.20;99.90;;;;;;6240354;23;20005;-93
2021/08/07 02:16:26;;;;;;;8.02;2.65;;;13.20;99.90;;;;;;6229239;23;20039;-93
2021/08/07 02:18:53;;;;;;;8.55;2.50;;;13.20;99.90;;;;;;6221095;23;20032;-94
2021/08/07 02:21:20;;;;;;;7.00;2.25;;;13.20;99.90;;;;;;6220379;23;20009;-94
2021/08/07 02:23:48;;;;;;;5.90;2.28;;;13.20;99.90;;;;;;6220167;23;20057;-95
2021/08/07 02:26:16;;;;;;;9.02;2.92;;;13.30;99.90;;;;;;6220316;23;20052;-95
2021/08/07 02:28:42;;;;;;;13.65;3.30;;;13.30;99.90;;;;;;6219021;23;20005;-93
2021/08/07 02:31:09;;;;;;;11.52;2.90;;;13.20;99.90;;;;;;6217263;23;20100;-94
2021/08/07 02:33:36;;;;;;;8.30;3.17;;;13.30;99.90;;;;;;6222661;23;20050;-94
2021/08/07 02:36:04;;;;;;;8.20;2.83;;;13.20;99.90;;;;;;6217553;23;20566;-94
2021/08/07 02:38:32;;;;;;;10.40;2.72;;;13.20;99.90;;;;;;6217601;23;20494;-95
2021/08/07 02:40:59;;;;;;;12.05;2.92;;;13.20;99.90;;;;;;6217073;23;20071;-94
2021/08/07 02:43:26;;;;;;;8.50;3.10;;;13.20;99.90;;;;;;6217281;23;20000;-94
2021/08/07 02:45:52;;;;;;;9.57;3.15;;;13.20;99.90;;;;;;6217043;23;20031;-94
2021/08/07 02:48:20;;;;;;;11.32;3.10;;;13.20;99.90;;;;;;6216722;23;20017;-94
2021/08/07 02:50:46;;;;;;;10.75;2.60;;;13.30;99.90;;;;;;6219960;23;20004;-93
2021/08/07 02:53:13;;;;;;;10.68;2.70;;;13.30;99.90;;;;;;6223459;22;20000;-93
2021/08/07 02:55:40;;;;;;;6.95;2.60;;;13.30;99.90;;;;;;6239154;23;20024;-94
2021/08/07 02:58:06;;;;;;;11.38;2.70;;;13.30;99.90;;;;;;6216458;23;20036;-93
2021/08/07 03:00:34;;;;;;;8.77;2.40;;;13.30;99.90;;;;;;6216557;23;20092;-93
2021/08/07 03:03:00;;;;;;;7.28;2.58;;;13.30;99.90;;;;;;6216548;23;20452;-93
2021/08/07 03:05:26;;;;;;;12.52;3.10;;;13.30;99.90;;;;;;6216233;23;20004;-94
2021/08/07 03:07:52;;;;;;;9.63;2.70;;;13.30;99.90;;;;;;6220849;23;20011;-93
2021/08/07 03:10:18;;;;;;;7.97;2.83;;;13.30;99.90;;;;;;6221553;23;20012;-93
2021/08/07 03:12:44;;;;;;;8.90;3.05;;;13.30;99.90;;;;;;6246085;23;20440;-93
2021/08/07 03:15:14;;;;;;;12.35;2.70;;;13.30;99.90;;;;;;6220576;23;20012;-92
2021/08/07 03:17:40;;;;;;;15.95;2.90;;;13.30;99.90;;;;;;6246165;23;20004;-93
2021/08/07 03:20:09;;;;;;;10.75;2.53;;;13.30;99.90;;;;;;6220368;23;20019;-94
2021/08/07 03:22:35;;;;;;;10.43;2.40;;;13.30;99.90;;;;;;6245789;23;20432;-92
2021/08/07 03:25:01;;;;;;;9.30;2.85;;;13.30;99.90;;;;;;6220876;23;20116;-93
2021/08/07 03:27:27;;;;;;;12.23;2.85;;;13.30;99.90;;;;;;6246069;23;20009;-93
2021/08/07 03:29:53;;;;;;;15.27;2.78;;;13.30;99.90;;;;;;6220757;23;20028;-94
2021/08/07 03:32:18;;;;;;;12.13;2.97;;;13.30;99.90;;;;;;6220574;23;20004;-93
2021/08/07 03:34:44;;;;;;;8.95;2.83;;;13.30;99.90;;;;;;6221052;23;20099;-93
2021/08/07 03:37:10;;;;;;;10.30;3.28;;;13.30;99.90;;;;;;6220952;23;20004;-93
2021/08/07 03:39:37;;;;;;;11.40;3.50;;;13.30;99.90;;;;;;6220837;23;20015;-93
2021/08/07 03:42:05;;;;;;;9.65;3.03;;;13.30;99.90;;;;;;6246233;23;20008;-92
2021/08/07 03:44:31;;;;;;;12.75;3.03;;;13.30;99.90;;;;;;6220831;23;20382;-92
2021/08/07 03:46:56;;;;;;;8.80;2.45;;;13.30;99.90;;;;;;6220942;23;20004;-92
2021/08/07 03:49:22;;;;;;;9.65;3.00;;;13.30;99.90;;;;;;6221679;23;20020;-94
2021/08/07 03:51:48;;;;;;;14.23;3.13;;;13.30;99.90;;;;;;6220776;23;20035;-93
2021/08/07 03:54:14;;;;;;;12.38;3.17;;;13.30;99.90;;;;;;6220712;23;20008;-94
2021/08/07 03:56:40;;;;;;;13.18;3.17;;;13.30;99.90;;;;;;6245787;23;20035;-93
2021/08/07 03:59:06;;;;;;;5.25;2.42;;;13.20;99.90;;;;;;6245888;23;20416;-92
2021/08/07 04:01:32;;;;;;;8.60;2.90;;;13.20;99.90;;;;;;6220656;23;20001;-93
2021/08/07 04:03:57;;;;;;;13.00;3.15;;;13.20;99.90;;;;;;6221463;23;20119;-94
2021/08/07 04:06:23;;;;;;;13.88;2.88;;;13.20;99.90;;;;;;6221764;23;20415;-92
2021/08/07 04:08:50;;;;;;;9.05;3.17;;;13.20;99.90;;;;;;6221551;23;20499;-94
2021/08/07 04:11:15;;;;;;;14.50;2.80;;;13.20;99.90;;;;;;6220910;22;20012;-94
2021/08/07 04:13:41;;;;;;;12.68;3.22;;;13.20;99.90;;;;;;6221360;23;20064;-94
2021/08/07 04:16:08;;;;;;;13.27;3.38;;;13.20;99.90;;;;;;6220573;23;20313;-92
2021/08/07 04:18:34;;;;;;;14.93;3.72;;;13.20;99.90;;;;;;6220521;23;20432;-92
2021/08/07 04:20:59;;;;;;;13.15;3.92;;;13.20;99.90;;;;;;6220156;23;20151;-94
2021/08/07 04:23:25;;;;;;;17.50;3.53;;;13.10;99.90;;;;;;6220869;23;20416;-93
2021/08/07 04:25:51;;;;;;;19.60;3.85;;;13.10;99.90;;;;;;6223155;23;20008;-92
2021/08/07 04:28:16;;;;;;;9.82;2.97;;;13.10;99.90;;;;;;6221158;23;20008;-93
2021/08/07 04:30:42;;;;;;;11.85;3.08;;;13.10;99.90;;;;;;6246861;23;20028;-94
2021/08/07 04:33:08;;;;;;;13.15;4.28;;;13.10;99.90;;;;;;6221486;23;20008;-92
2021/08/07 04:35:35;;;;;;;10.60;3.03;;;13.10;99.90;;;;;;6221316;23;20012;-92
2021/08/07 04:38:01;;;;;;;14.10;3.20;;;13.10;99.90;;;;;;6252409;23;19992;-93
2021/08/07 04:40:28;;;;;;;7.55;2.90;;;13.10;99.90;;;;;;6230785;23;20018;-92
2021/08/07 04:42:53;;;;;;;14.48;3.05;;;13.10;99.90;;;;;;6245686;23;20004;-93
2021/08/07 04:45:19;;;;;;;19.15;3.70;;;13.10;99.90;;;;;;6219724;23;20056;-93
2021/08/07 04:48:06;;;;;;;9.45;3.15;;;13.10;99.90;;;;;;6245415;23;20004;-93
2021/08/07 04:50:34;;;;;;;13.07;3.45;;;13.10;99.90;;;;;;6245237;23;20032;-92
2021/08/07 04:53:00;;;;;;;16.48;3.10;;;13.10;99.90;;;;;;6244977;23;20004;-92
2021/08/07 04:55:26;;;;;;;13.57;3.25;;;13.10;99.90;;;;;;6219612;23;20016;-93
2021/08/07 04:57:52;;;;;;;11.93;3.15;;;13.10;99.90;;;;;;6245331;23;20000;-93
2021/08/07 05:00:19;;;;;;;10.13;2.70;;;13.10;99.90;;;;;;6219952;23;20047;-93
2021/08/07 05:02:51;;;;;;;13.50;4.15;;;13.10;99.90;;;;;;6245238;23;20000;-94
2021/08/07 05:05:18;;;;;;;13.10;2.90;;;13.00;99.90;;;;;;6247098;23;20031;-93
2021/08/07 05:07:44;;;;;;;12.65;3.38;;;13.10;99.90;;;;;;6247314;23;20423;-94
2021/08/07 05:10:11;;;;;;;11.93;3.10;;;13.00;99.90;;;;;;6221390;23;20036;-92
2021/08/07 05:12:37;;;;;;;11.55;3.05;;;13.00;99.90;;;;;;6246991;23;20091;-93
2021/08/07 05:15:04;;;;;;;10.70;2.65;;;13.00;99.90;;;;;;6246841;23;20004;-92
2021/08/07 05:17:30;;;;;;;8.43;3.00;;;13.10;99.90;;;;;;6247115;23;20094;-93
2021/08/07 05:19:56;;;;;;;14.85;2.85;;;13.10;99.90;;;;;;6221980;23;20051;-92
2021/08/07 05:24:50;;;;;;;8.40;2.97;;;13.10;99.90;;;;;;6182105;23;20020;-93
2021/08/07 05:27:16;;;;;;;10.90;3.00;;;13.00;99.90;;;;;;6246705;23;20079;-96
2021/08/07 05:29:42;;;;;;;12.23;3.10;;;13.10;99.90;;;;;;6247087;23;20050;-93
2021/08/07 05:32:08;;;;;;;13.25;3.65;;;13.10;99.90;;;;;;6247336;23;20054;-92
2021/08/07 05:34:34;;;;;;;13.70;3.95;;;13.10;99.90;;;;;;6246916;23;20008;-93
2021/08/07 05:37:00;;;;;;;8.73;2.67;;;13.10;99.90;;;;;;6246959;23;20031;-94
2021/08/07 05:39:26;;;;;;;13.80;3.85;;;13.10;99.90;;;;;;6247070;23;20008;-93
2021/08/07 05:41:52;;;;;;;8.48;3.55;;;13.10;99.90;;;;;;6246487;23;20008;-93
2021/08/07 05:44:17;;;;;;;14.43;3.97;;;13.10;99.90;;;;;;6246544;23;20030;-93
2021/08/07 05:46:43;;;;;;;9.93;3.42;;;13.10;99.90;;;;;;6246625;23;20000;-94
2021/08/07 05:49:10;;;;;;;12.15;2.95;;;13.10;99.90;;;;;;6246816;23;20095;-93
2021/08/07 05:51:35;;;;;;;11.32;3.53;;;13.10;99.90;;;;;;6246780;23;20457;-93
2021/08/07 05:56:27;;;;;;;12.52;3.00;;;13.10;99.90;;;;;;6179941;22;20026;-93
2021/08/07 05:58:52;;;;;;;6.40;3.20;;;13.10;99.90;;;;;;6251877;22;20049;-94
2021/08/07 06:01:18;;;;;;;8.05;3.03;;;13.00;99.90;;;;;;6251984;22;20015;-92
2021/08/07 06:03:44;;;;;;;10.95;2.65;;;13.00;99.90;;;;;;6251987;22;20006;-95
2021/08/07 06:06:09;;;;;;;4.93;2.53;;;13.00;99.90;;;;;;6251743;22;20003;-94
2021/08/07 06:08:35;;;;;;;10.32;2.90;;;13.00;99.90;;;;;;6251630;22;20015;-92
2021/08/07 06:11:01;;;;;;;11.57;2.90;;;13.10;99.90;;;;;;6254091;22;20057;-94
2021/08/07 06:13:27;;;;;;;8.02;2.70;;;13.10;99.90;;;;;;6222047;23;20004;-94
2021/08/07 06:15:52;;;;;;;11.27;3.03;;;13.10;99.90;;;;;;6221026;23;20083;-94
2021/08/07 06:18:18;;;;;;;8.23;2.38;;;13.10;99.90;;;;;;6221438;23;20058;-94
2021/08/07 06:20:44;;;;;;;10.73;3.28;;;13.10;99.90;;;;;;6222146;23;20012;-93
2021/08/07 06:23:10;;;;;;;9.60;3.10;;;13.10;99.90;;;;;;6225589;23;20008;-93
2021/08/07 06:25:36;;;;;;;9.57;3.28;;;13.10;99.90;;;;;;6244341;23;20068;-93
2021/08/07 06:28:03;;;;;;;12.43;2.90;;;13.20;99.90;;;;;;6221805;23;20007;-93
2021/08/07 06:30:29;;;;;;;9.05;3.30;;;13.20;99.90;;;;;;6220951;23;20012;-93
2021/08/07 06:32:55;;;;;;;12.55;3.20;;;13.20;99.90;;;;;;6219654;23;20026;-93
2021/08/07 06:35:20;;;;;;;7.65;2.80;;;13.20;99.90;;;;;;6220805;23;20046;-92
2021/08/07 06:37:46;;;;;;;14.50;2.72;;;13.20;99.90;;;;;;6220991;23;20012;-92
2021/08/07 06:40:13;;;;;;;10.10;3.03;;;13.30;99.90;;;;;;6220702;23;20119;-92
2021/08/07 06:42:39;;;;;;;6.80;3.13;;;13.30;99.90;;;;;;6221306;23;20008;-93
2021/08/07 06:45:06;;;;;;;8.18;3.15;;;13.30;99.90;;;;;;6220826;23;20030;-92
2021/08/07 06:47:32;;;;;;;12.48;2.80;;;13.30;99.90;;;;;;6220652;23;19997;-92
2021/08/07 06:49:58;;;;;;;10.32;2.53;;;13.30;99.90;;;;;;6220294;23;20011;-92
2021/08/07 06:52:27;;;;;;;8.23;2.50;;;13.30;99.90;;;;;;6220995;23;20012;-93
2021/08/07 06:54:52;;;;;;;9.65;2.72;;;13.30;99.90;;;;;;6221340;23;20066;-93
2021/08/07 06:57:20;;;;;;;12.85;2.90;;;13.40;99.90;;;;;;6236552;22;20008;-94
2021/08/07 06:59:46;;;;;;;9.63;2.60;;;13.40;99.90;;;;;;6250774;22;20019;-94
2021/08/07 07:02:12;;;;;;;14.23;2.95;;;13.40;99.90;;;;;;6250240;22;20484;-93
2021/08/07 07:04:37;;;;;;;10.00;2.63;;;13.50;99.90;;;;;;6249978;22;20014;-92
2021/08/07 07:07:04;;;;;;;14.90;2.67;;;13.60;99.90;;;;;;6250809;22;20006;-94
2021/08/07 07:09:30;;;;;;;8.88;2.25;;;13.70;99.90;;;;;;6250526;22;20057;-92
2021/08/07 07:11:56;;;;;;;6.95;2.00;;;13.70;99.90;;;;;;6252258;22;20419;-92
2021/08/07 07:14:21;;;;;;;9.63;2.40;;;13.80;99.90;;;;;;6252885;22;20011;-92
2021/08/07 07:16:56;;;;;;;8.65;2.58;;;13.90;99.90;;;;;;6253780;22;20000;-93
2021/08/07 07:19:21;;;;;;;13.82;2.40;;;13.90;99.90;;;;;;6252703;22;20091;-93
2021/08/07 07:21:47;;;;;;;8.43;2.38;;;13.90;99.90;;;;;;6251909;22;20085;-92
2021/08/07 07:24:13;;;;;;;8.30;2.53;;;14.00;99.90;;;;;;6252814;22;20496;-94
2021/08/07 07:26:38;;;;;;;3.45;1.63;;;14.00;99.90;;;;;;6251301;22;20086;-92
2021/08/07 07:29:04;;;;;;;4.93;2.05;;;14.00;99.90;;;;;;6250777;22;20050;-94
2021/08/07 07:31:30;;;;;;;15.95;3.10;;;14.00;99.90;;;;;;6250539;22;20007;-94
2021/08/07 07:33:57;;;;;;;10.85;3.00;;;14.00;99.90;;;;;;6250298;22;20010;-94
2021/08/07 07:36:23;;;;;;;10.02;2.45;;;14.00;99.90;;;;;;6250384;22;20493;-93
2021/08/07 07:38:49;;;;;;;9.73;2.05;;;14.00;99.90;;;;;;6251163;22;20027;-93
2021/08/07 07:41:15;;;;;;;5.75;2.17;;;14.00;99.90;;;;;;6251364;22;20086;-93
2021/08/07 07:43:40;;;;;;;5.18;1.50;;;14.10;99.90;;;;;;6250715;22;20004;-94
2021/08/07 07:46:06;;;;;;;7.50;2.40;;;14.10;99.90;;;;;;6250245;22;20015;-94
2021/08/07 07:48:32;;;;;;;14.02;2.80;;;14.10;99.90;;;;;;6250060;22;20084;-95
2021/08/07 07:50:58;;;;;;;7.07;2.03;;;14.00;99.90;;;;;;6250219;22;20004;-93
2021/08/07 07:53:24;;;;;;;9.93;2.28;;;14.00;99.90;;;;;;6250409;22;20125;-93
2021/08/07 07:55:53;;;;;;;6.40;1.90;;;14.00;99.90;;;;;;6250596;22;19999;-93
2021/08/07 07:58:21;;;;;;;10.57;2.33;;;14.00;99.90;;;;;;6251175;22;20019;-92
2021/08/07 08:00:47;;;;;;;9.90;2.05;;;14.10;99.90;;;;;;6252872;22;20069;-93
2021/08/07 08:03:13;;;;;;;8.57;2.50;;;14.20;99.90;;;;;;6250774;22;20012;-92
2021/08/07 08:05:39;;;;;;;11.30;2.20;;;14.30;99.90;;;;;;6251229;22;20388;-94
2021/08/07 08:08:05;;;;;;;10.23;2.22;;;14.30;99.90;;;;;;6253544;22;19996;-93
2021/08/07 08:10:31;;;;;;;9.60;2.00;;;14.40;99.90;;;;;;6269569;22;19992;-92
2021/08/07 08:12:57;;;;;;;13.15;2.30;;;14.40;99.90;;;;;;6262434;22;20004;-93
2021/08/07 08:15:23;;;;;;;6.28;2.30;;;14.50;99.90;;;;;;6252689;22;20071;-94
2021/08/07 08:17:48;;;;;;;8.35;2.40;;;14.60;99.90;;;;;;6251389;22;20026;-93
2021/08/07 08:20:14;;;;;;;10.57;2.58;;;14.60;99.90;;;;;;6251535;22;20043;-93
2021/08/07 08:22:40;;;;;;;9.50;2.10;;;14.70;99.90;;;;;;6255787;22;20014;-92
2021/08/07 08:25:10;;;;;;;7.95;1.98;;;14.70;99.90;;;;;;6269090;22;20091;-93
2021/08/07 08:27:36;;;;;;;6.20;2.78;;;14.70;99.90;;;;;;6258225;22;20000;-92
2021/08/07 08:30:03;;;;;;;7.88;2.15;;;14.80;99.90;;;;;;6255390;22;20004;-92
2021/08/07 08:32:28;;;;;;;10.25;1.95;;;14.80;99.90;;;;;;6255433;22;20004;-91
2021/08/07 08:34:54;;;;;;;7.00;1.70;;;14.80;99.90;;;;;;6254941;22;20079;-93
2021/08/07 08:37:20;;;;;;;12.73;2.25;;;14.90;99.90;;;;;;6253171;22;20019;-93
2021/08/07 08:39:45;;;;;;;11.05;2.03;;;14.90;99.90;;;;;;6254179;22;20039;-93
2021/08/07 08:42:11;;;;;;;12.18;2.50;;;14.90;99.90;;;;;;6254544;22;20054;-93
2021/08/07 08:44:38;;;;;;;7.03;2.10;;;15.10;99.90;;;;;;6253230;22;20057;-93
2021/08/07 08:47:07;;;;;;;5.25;1.75;;;15.10;99.90;;;;;;6251189;22;20007;-91
2021/08/07 08:49:33;;;;;;;8.82;2.00;;;15.30;99.90;;;;;;6251667;22;20075;-92
2021/08/07 08:52:01;;;;;;;6.25;2.00;;;15.40;99.90;;;;;;6251727;22;20008;-95
2021/08/07 08:54:28;;;;;;;7.10;1.65;;;15.60;99.90;;;;;;6251038;22;20011;-93
2021/08/07 08:56:54;;;;;;;11.77;2.97;;;15.80;99.90;;;;;;6251831;22;20370;-95
2021/08/07 08:59:21;;;;;;;6.90;1.60;;;16.00;99.90;;;;;;6252744;22;20008;-94
2021/08/07 09:01:47;;;;;;;7.03;1.85;;;16.20;99.90;;;;;;6252149;22;20015;-94
2021/08/07 09:04:13;;;;;;;7.88;1.70;;;16.30;99.90;;;;;;6251153;22;20004;-93
2021/08/07 09:06:39;;;;;;;5.43;1.45;;;16.40;99.90;;;;;;6251283;22;20319;-94
2021/08/07 09:09:10;;;;;;;10.85;1.67;;;16.40;99.90;;;;;;6251236;22;20007;-93
2021/08/07 09:11:57;;;;;;;7.30;2.08;;;16.50;99.90;;;;;;6252244;22;20004;-95
2021/08/07 09:14:32;;;;;;;6.15;1.58;;;16.60;99.90;;;;;;6251551;22;20004;-95
2021/08/07 09:17:01;;;;;;;3.50;1.45;;;16.60;99.90;;;;;;6253824;22;20471;-95
2021/08/07 09:19:28;;;;;;;5.75;1.85;;;16.50;99.90;;;;;;6252540;22;20016;-95
2021/08/07 09:22:12;;;;;;;7.03;1.30;;;16.50;99.90;;;;;;6252163;22;20007;-94
2021/08/07 09:25:13;;;;;;;7.10;1.40;;;16.50;99.90;;;;;;6251508;22;19996;-96
2021/08/07 09:27:40;;;;;;;6.63;1.20;;;16.50;99.90;;;;;;6252007;22;19996;-95
2021/08/07 09:30:28;;;;;;;11.68;1.52;;;16.50;99.90;;;;;;6253532;22;20285;-96
2021/08/07 09:33:03;;;;;;;5.70;1.35;;;16.70;99.90;;;;;;6252176;22;20008;-95
2021/08/07 09:35:38;;;;;;;2.92;1.38;;;16.80;99.90;;;;;;6262992;22;20331;-94
2021/08/07 09:38:11;;;;;;;7.70;1.73;;;17.00;99.90;;;;;;6251858;22;20084;-94
2021/08/07 09:40:57;;;;;;;5.03;1.20;;;17.00;99.90;;;;;;6252497;22;20018;-94
2021/08/07 09:43:39;;;;;;;5.22;1.58;;;17.00;99.90;;;;;;6252247;22;20000;-94
2021/08/07 09:46:11;;;;;;;6.05;1.35;;;17.10;99.90;;;;;;6253114;22;20004;-96
2021/08/07 09:48:52;;;;;;;5.00;1.33;;;17.20;99.90;;;;;;6252938;22;20063;-94
2021/08/07 09:51:27;;;;;;;6.40;1.23;;;17.20;99.90;;;;;;6253464;22;20007;-95
2021/08/07 09:54:20;;;;;;;6.78;1.55;;;17.30;99.90;;;;;;6255442;22;20518;-96
2021/08/07 09:56:53;;;;;;;6.40;1.35;;;17.40;99.90;;;;;;6242336;22;20011;-94
2021/08/07 09:59:25;;;;;;;3.15;1.30;;;17.40;99.90;;;;;;6266017;22;20014;-93
2021/08/07 10:01:54;;;;;;;7.25;1.58;;;17.30;99.40;;;;;;6253710;22;20083;-94
2021/08/07 10:04:21;;;;;;;7.00;1.65;;;17.20;99.80;;;;;;6253581;22;20339;-93
2021/08/07 10:06:48;;;;;;;5.57;1.23;;;17.10;99.90;;;;;;6255569;22;20011;-94
2021/08/07 10:09:14;;;;;;;6.35;1.10;;;17.10;99.90;;;;;;6252567;22;20008;-96
2021/08/07 10:12:06;;;;;;;4.40;1.30;;;17.10;99.90;;;;;;6251401;22;19996;-95
2021/08/07 10:14:32;;;;;;;3.85;1.20;;;17.20;99.90;;;;;;6251057;22;20007;-95
2021/08/07 10:17:01;;;;;;;5.32;1.52;;;17.30;99.80;;;;;;6251071;22;20000;-94
2021/08/07 10:19:27;;;;;;;6.80;1.17;;;17.20;99.40;;;;;;6250003;22;20508;-93
2021/08/07 10:21:53;;;;;;;6.15;1.38;;;17.20;99.40;;;;;;6249963;22;20007;-94
2021/08/07 10:24:19;;;;;;;4.68;1.88;;;17.20;99.30;;;;;;6250263;22;20027;-94
2021/08/07 10:26:49;;;;;;;7.00;1.75;;;17.20;99.40;;;;;;6250138;22;20008;-93
2021/08/07 10:29:18;;;;;;;4.82;1.35;;;17.10;99.30;;;;;;6250066;22;20046;-94
2021/08/07 10:31:44;;;;;;;4.55;1.17;;;17.10;99.40;;;;;;6250319;22;20008;-93
2021/08/07 10:34:10;;;;;;;7.03;1.20;;;17.00;99.40;;;;;;6250652;22;20014;-94
2021/08/07 10:36:37;;;;;;;7.28;2.35;;;17.00;99.40;;;;;;6250596;22;20011;-93
2021/08/07 10:39:06;;;;;;;7.10;1.27;;;17.00;99.50;;;;;;6249807;22;20004;-93
2021/08/07 10:41:33;;;;;;;4.97;1.17;;;16.90;99.60;;;;;;6250201;22;20007;-94
2021/08/07 10:44:02;;;;;;;6.40;1.02;;;16.90;99.70;;;;;;6250746;22;20011;-94
2021/08/07 10:46:32;;;;;;;5.55;1.25;;;16.90;99.90;;;;;;6250378;22;20174;-93
2021/08/07 10:48:58;;;;;;;5.03;1.17;;;16.90;99.90;;;;;;6249859;22;20012;-93
2021/08/07 10:51:27;;;;;;;6.47;1.30;;;16.90;99.90;;;;;;6251000;22;20007;-93
2021/08/07 10:53:56;;;;;;;4.03;1.15;;;17.00;99.90;;;;;;6251096;22;20339;-94
2021/08/07 10:56:30;;;;;;;6.07;1.90;;;17.10;99.90;;;;;;6251687;22;20020;-94
2021/08/07 10:58:58;;;;;;;5.97;1.55;;;17.30;99.60;;;;;;6250632;22;20003;-94
2021/08/07 11:01:24;;;;;;;4.80;1.20;;;17.40;99.40;;;;;;6250345;22;20146;-96
2021/08/07 11:04:00;;;;;;;3.40;1.00;;;17.50;99.50;;;;;;6250169;22;20004;-93
2021/08/07 11:06:48;;;;;;;4.97;1.10;;;17.60;99.20;;;;;;6250261;22;20012;-94
2021/08/07 11:09:28;;;;;;;5.43;1.02;;;17.60;98.10;;;;;;6251023;22;20011;-95
2021/08/07 11:12:06;;;;;;;4.43;1.02;;;17.60;98.10;;;;;;6251127;22;20456;-96
2021/08/07 11:14:34;;;;;;;4.82;0.90;;;17.60;98.20;;;;;;6250213;22;20086;-95
2021/08/07 11:20:04;;;;;;;5.70;1.02;;;17.80;97.70;;;;;;6277348;22;20557;-95
2021/08/07 11:22:37;;;;;;;7.82;1.55;;;18.00;97.10;;;;;;6251395;22;20043;-96
2021/08/07 11:25:19;;;;;;;4.18;1.08;;;18.10;96.90;;;;;;6250709;22;20010;-94
2021/08/07 11:30:36;;;;;;;3.22;1.10;;;18.20;96.40;;;;;;6278462;22;20070;-95
2021/08/07 11:33:03;;;;;;;3.40;1.20;;;18.20;96.00;;;;;;6251985;22;19999;-93
2021/08/07 11:39:08;;;;;;;3.97;1.50;;;18.00;95.50;;;;;;6267454;22;20035;31
2021/08/07 11:41:36;;;;;;;4.40;0.95;;;17.80;95.80;;;;;;6195106;23;20028;-94
2021/08/07 11:44:02;;;;;;;3.08;0.80;;;17.70;96.00;;;;;;6208889;23;19993;-96
2021/08/07 11:46:37;;;;;;;5.60;1.10;;;17.50;96.20;;;;;;6202373;23;20013;-94
2021/08/07 11:49:04;;;;;;;2.05;0.95;;;17.40;96.40;;;;;;6191395;23;20074;-94
2021/08/07 11:51:29;;;;;;;7.40;1.20;;;17.20;96.90;;;;;;6191400;23;20008;-95
2021/08/07 11:53:55;;;;;;;2.78;0.80;;;17.10;97.60;;;;;;6190156;23;20326;-96
2021/08/07 11:56:24;;;;;;;6.85;1.20;;;17.00;98.10;;;;;;6194257;23;20015;-94
2021/08/07 11:58:59;;;;;;;2.35;1.13;;;16.90;98.40;;;;;;6193274;23;20008;-94
2021/08/07 12:01:39;;;;;;;7.53;1.30;;;16.80;99.20;;;;;;6197306;23;20016;-95
2021/08/07 12:04:05;;;;;;;6.90;1.33;;;16.80;99.90;;;;;;6193720;23;20007;-95
2021/08/07 12:06:41;;;;;;;3.30;1.10;;;16.60;99.90;;;;;;6197028;23;20083;-95
2021/08/07 12:09:13;;;;;;;3.70;1.25;;;16.60;99.90;;;;;;6194059;23;20008;-94
2021/08/07 12:11:42;;;;;;;6.18;1.45;;;16.60;99.90;;;;;;6194373;23;20075;-93
2021/08/07 12:14:09;;;;;;;2.93;1.50;;;16.50;99.90;;;;;;6220536;23;20004;-94
2021/08/07 12:16:38;;;;;;;8.00;1.55;;;16.50;99.90;;;;;;6221407;23;20008;-94
2021/08/07 12:19:17;;;;;;;3.65;1.25;;;16.50;99.90;;;;;;6225797;23;20038;-95
2021/08/07 12:22:03;;;;;;;5.38;1.42;;;16.50;99.90;;;;;;6224625;22;20098;-96
2021/08/07 12:24:32;;;;;;;8.27;1.40;;;16.50;99.90;;;;;;6227392;23;20000;-95
2021/08/07 12:56:12;;;;;;;4.70;1.65;;;17.30;99.90;;;;;;6260068;22;20012;-95
2021/08/07 13:02:28;;;;;;;5.10;1.45;;;17.50;99.90;;;;;;6231095;22;20031;-95
2021/08/07 13:05:42;;;;;;;5.25;2.13;;;17.50;99.90;;;;;;6227866;22;20459;-95
2021/08/07 13:18:01;;;;;;;2.40;1.02;;;17.00;99.90;;;;;;6194223;23;20051;-94
2021/08/07 13:21:26;;;;;;;1.80;0.95;;;16.70;99.90;;;;;;6225703;23;20036;-96
2021/08/07 13:38:04;;;;;;;2.50;1.10;;;16.10;99.90;;;;;;6254891;22;20050;-96
2021/08/07 13:40:50;;;;;;;2.22;1.25;;;16.10;99.90;;;;;;6207376;23;20000;-95
2021/08/07 13:52:32;;;;;;;3.30;1.17;;;16.50;99.90;;;;;;6291910;22;20019;-94
2021/08/07 13:54:58;;;;;;;4.55;1.20;;;16.50;99.90;;;;;;6263088;22;20000;-93
2021/08/07 13:57:53;;;;;;;6.60;1.17;;;16.60;99.90;;;;;;6264826;22;20015;-95
2021/08/07 14:06:19;;;;;;;;;;;;;;;;;;;;;
2021/08/07 14:12:36;;;;;;;4.07;1.30;;;17.10;99.90;;;;;;6272215;22;20023;-94
2021/08/07 14:15:20;;;;;;;2.33;0.90;;;17.10;99.90;;;;;;6205338;23;20008;-95
2021/08/07 14:17:58;;;;;;;2.67;0.95;;;17.10;99.90;;;;;;6233537;23;20081;-96
2021/08/07 14:20:54;;;;;;;3.10;1.23;;;17.10;99.90;;;;;;6257847;23;20064;-96
2021/08/07 14:23:23;;;;;;;1.27;0.80;;;17.20;99.90;;;;;;6233861;23;20072;-95
2021/08/07 14:26:27;;;;;;;1.35;0.90;;;17.30;99.90;;;;;;6233069;23;20012;-95